createdAt,value
2022-10-23T00:01:31.224Z,6.70
2022-10-23T00:04:06.015Z,6.69
2022-10-23T00:06:33.651Z,6.70
2022-10-23T00:09:00.563Z,6.67
2022-10-23T00:11:29.806Z,6.71
2022-10-23T00:13:59.544Z,6.75
2022-10-23T00:16:27.059Z,6.66
2022-10-23T00:18:53.436Z,6.49
2022-10-23T00:21:20.755Z,6.37
2022-10-23T00:23:47.106Z,6.39
2022-10-23T00:26:16.819Z,6.44
2022-10-23T00:28:44.350Z,6.40
2022-10-23T00:31:10.944Z,6.53
2022-10-23T00:33:37.691Z,6.51
2022-10-23T00:36:09.670Z,6.47
2022-10-23T00:38:36.322Z,6.43
2022-10-23T00:41:04.065Z,6.44
2022-10-23T00:43:31.357Z,6.36
2022-10-23T00:45:58.377Z,6.31
2022-10-23T00:48:27.519Z,6.39
2022-10-23T00:50:54.894Z,6.39
2022-10-23T00:53:21.823Z,6.35
2022-10-23T00:55:53.426Z,6.33
2022-10-23T00:58:21.373Z,6.34
2022-10-23T01:00:54.189Z,6.30
2022-10-23T01:03:23.679Z,6.26
2022-10-23T01:05:59.776Z,6.27
2022-10-23T01:08:35.424Z,6.31
2022-10-23T01:11:13.002Z,6.27
2022-10-23T01:14:11.503Z,6.23
2022-10-23T01:16:48.794Z,6.23
2022-10-23T01:19:25.255Z,6.23
2022-10-23T01:24:59.181Z,6.26
2022-10-23T01:27:30.594Z,6.09
2022-10-23T01:30:13.520Z,6.01
2022-10-23T01:32:54.055Z,6.03
2022-10-23T01:35:47.745Z,6.11
2022-10-23T01:38:20.375Z,6.11
2022-10-23T01:41:02.995Z,6.03
2022-10-23T01:43:36.888Z,5.94
2022-10-23T01:46:08.662Z,5.85
2022-10-23T01:48:37.303Z,5.90
2022-10-23T01:51:07.827Z,6.02
2022-10-23T01:53:38.910Z,6.16
2022-10-23T01:56:09.420Z,6.24
2022-10-23T01:58:36.461Z,6.32
2022-10-23T02:01:07.165Z,6.41
2022-10-23T02:03:37.243Z,6.41
2022-10-23T02:06:03.784Z,6.40
2022-10-23T02:08:31.542Z,6.33
2022-10-23T02:11:07.901Z,6.50
2022-10-23T02:13:49.326Z,6.52
2022-10-23T02:16:25.290Z,6.61
2022-10-23T02:18:56.274Z,6.64
2022-10-23T02:21:36.848Z,6.69
2022-10-23T02:24:09.314Z,6.80
2022-10-23T02:26:45.826Z,6.82
2022-10-23T02:29:35.562Z,6.75
2022-10-23T02:32:02.706Z,6.66
2022-10-23T02:34:29.078Z,6.69
2022-10-23T02:36:55.515Z,6.69
2022-10-23T02:39:27.652Z,6.71
2022-10-23T02:41:58.208Z,6.77
2022-10-23T02:44:43.295Z,6.85
2022-10-23T02:47:49.404Z,6.84
2022-10-23T02:50:42.084Z,6.68
2022-10-23T02:53:18.217Z,6.71
2022-10-23T02:56:06.874Z,6.49
2022-10-23T02:58:58.075Z,6.41
2022-10-23T03:01:32.867Z,6.46
2022-10-23T03:04:00.722Z,6.50
2022-10-23T03:06:27.215Z,6.51
2022-10-23T03:09:06.188Z,6.60
2022-10-23T03:11:32.523Z,6.59
2022-10-23T03:13:58.934Z,6.67
2022-10-23T03:16:25.387Z,6.74
2022-10-23T03:18:51.964Z,6.64
2022-10-23T03:21:18.468Z,6.48
2022-10-23T03:23:45.539Z,6.46
2022-10-23T03:26:11.852Z,6.50
2022-10-23T03:28:38.191Z,6.55
2022-10-23T03:31:05.404Z,6.51
2022-10-23T03:33:32.514Z,6.59
2022-10-23T03:35:59.151Z,6.52
2022-10-23T03:38:25.519Z,6.59
2022-10-23T03:40:51.844Z,6.64
2022-10-23T03:43:18.524Z,6.66
2022-10-23T03:45:44.827Z,6.68
2022-10-23T03:48:11.713Z,6.75
2022-10-23T03:50:38.154Z,6.76
2022-10-23T03:53:04.491Z,6.69
2022-10-23T03:55:31.250Z,6.67
2022-10-23T03:57:58.063Z,6.73
2022-10-23T04:00:24.382Z,6.77
2022-10-23T04:02:50.732Z,6.75
2022-10-23T04:05:17.471Z,6.75
2022-10-23T04:07:44.184Z,6.73
2022-10-23T04:10:10.515Z,6.62
2022-10-23T04:12:37.315Z,6.67
2022-10-23T04:15:04.200Z,6.79
2022-10-23T04:17:30.517Z,6.89
2022-10-23T04:19:57.148Z,6.88
2022-10-23T04:22:26.009Z,6.94
2022-10-23T04:24:54.637Z,6.92
2022-10-23T04:27:21.247Z,6.91
2022-10-23T04:29:47.654Z,6.87
2022-10-23T04:32:13.981Z,6.70
2022-10-23T04:34:40.796Z,6.63
2022-10-23T04:37:07.221Z,6.61
2022-10-23T04:39:33.546Z,6.70
2022-10-23T04:42:00.211Z,6.78
2022-10-23T04:44:26.948Z,6.80
2022-10-23T04:46:53.375Z,6.78
2022-10-23T04:49:19.709Z,6.75
2022-10-23T04:51:46.443Z,6.76
2022-10-23T04:54:12.779Z,6.79
2022-10-23T04:56:40.000Z,6.81
2022-10-23T05:01:37.858Z,6.91
2022-10-23T05:04:04.848Z,6.98
2022-10-23T05:06:31.632Z,6.95
2022-10-23T05:08:58.057Z,7.00
2022-10-23T05:11:24.455Z,7.07
2022-10-23T05:13:51.255Z,7.10
2022-10-23T05:16:41.768Z,7.13
2022-10-23T05:19:11.011Z,7.18
2022-10-23T05:21:39.200Z,7.14
2022-10-23T05:24:05.732Z,7.03
2022-10-23T05:26:33.075Z,7.00
2022-10-23T05:28:59.794Z,7.02
2022-10-23T05:31:26.241Z,6.88
2022-10-23T05:33:55.383Z,6.78
2022-10-23T05:36:23.627Z,6.91
2022-10-23T05:38:50.583Z,7.02
2022-10-23T05:41:18.006Z,7.03
2022-10-23T05:43:46.050Z,7.01
2022-10-23T05:46:12.479Z,6.99
2022-10-23T05:48:39.098Z,6.98
2022-10-23T05:51:10.858Z,6.95
2022-10-23T05:53:40.129Z,7.06
2022-10-23T05:56:09.732Z,7.14
2022-10-23T05:58:36.682Z,7.19
2022-10-23T06:01:08.009Z,7.27
2022-10-23T06:03:37.179Z,7.37
2022-10-23T06:06:04.140Z,7.35
2022-10-23T06:08:31.864Z,7.35
2022-10-23T06:10:58.810Z,7.49
2022-10-23T06:13:25.127Z,7.69
2022-10-23T06:15:51.472Z,7.73
2022-10-23T06:18:18.236Z,7.67
2022-10-23T06:20:44.606Z,7.80
2022-10-23T06:23:10.955Z,7.78
2022-10-23T06:25:37.700Z,7.97
2022-10-23T06:28:04.115Z,8.08
2022-10-23T06:30:30.470Z,8.20
2022-10-23T06:32:57.207Z,8.25
2022-10-23T06:35:23.503Z,8.37
2022-10-23T06:37:49.816Z,8.56
2022-10-23T06:40:16.931Z,8.56
2022-10-23T06:42:43.642Z,8.79
2022-10-23T06:45:10.338Z,8.87
2022-10-23T06:47:37.075Z,9.02
2022-10-23T06:50:03.731Z,9.07
2022-10-23T06:52:46.365Z,9.17
2022-10-23T06:55:13.668Z,9.50
2022-10-23T06:57:40.772Z,9.46
2022-10-23T07:00:08.010Z,9.27
2022-10-23T07:02:34.351Z,9.32
2022-10-23T07:05:01.196Z,9.45
2022-10-23T07:07:29.876Z,9.27
2022-10-23T07:09:56.540Z,9.27
2022-10-23T07:12:23.000Z,9.51
2022-10-23T07:14:49.388Z,9.61
2022-10-23T07:17:15.807Z,9.76
2022-10-23T07:19:42.615Z,9.69
2022-10-23T07:22:10.793Z,9.97
2022-10-23T07:24:40.162Z,10.06
2022-10-23T07:27:06.865Z,10.10
2022-10-23T07:29:34.094Z,10.11
2022-10-23T07:32:01.728Z,9.80
2022-10-23T07:34:28.715Z,9.92
2022-10-23T07:36:57.258Z,9.93
2022-10-23T07:39:23.705Z,9.90
2022-10-23T07:41:50.129Z,10.19
2022-10-23T07:44:16.879Z,9.89
2022-10-23T07:46:44.045Z,10.13
2022-10-23T07:49:11.371Z,10.33
2022-10-23T07:51:37.689Z,10.18
2022-10-23T07:54:04.574Z,9.93
2022-10-23T07:56:31.350Z,10.48
2022-10-23T07:58:57.879Z,10.77
2022-10-23T08:01:32.071Z,10.98
2022-10-23T08:03:58.928Z,11.01
2022-10-23T08:06:25.598Z,11.06
2022-10-23T08:08:52.502Z,10.90
2022-10-23T08:11:25.879Z,11.17
2022-10-23T08:13:53.562Z,11.21
2022-10-23T08:16:20.490Z,10.95
2022-10-23T08:18:48.574Z,10.89
2022-10-23T08:21:15.718Z,10.91
2022-10-23T08:23:42.355Z,11.19
2022-10-23T08:26:09.866Z,11.33
2022-10-23T08:28:36.386Z,11.24
2022-10-23T08:31:12.335Z,11.24
2022-10-23T08:33:39.463Z,11.80
2022-10-23T08:36:15.384Z,11.20
2022-10-23T08:38:41.706Z,10.87
2022-10-23T08:41:24.031Z,11.26
2022-10-23T08:43:56.435Z,11.31
2022-10-23T08:46:28.774Z,11.55
2022-10-23T08:49:20.439Z,12.24
2022-10-23T08:51:50.491Z,11.86
2022-10-23T08:54:21.788Z,11.64
2022-10-23T08:56:58.194Z,11.68
2022-10-23T08:59:39.901Z,12.08
2022-10-23T09:02:17.094Z,11.81
2022-10-23T09:04:46.338Z,11.79
2022-10-23T09:07:26.914Z,11.71
2022-10-23T09:09:55.958Z,12.79
2022-10-23T09:12:24.694Z,13.03
2022-10-23T09:15:09.693Z,13.81
2022-10-23T09:17:38.931Z,13.06
2022-10-23T09:20:16.787Z,13.54
2022-10-23T09:22:43.418Z,13.43
2022-10-23T09:25:11.978Z,13.05
2022-10-23T09:27:38.760Z,13.13
2022-10-23T09:30:05.720Z,12.96
2022-10-23T09:32:37.424Z,13.00
2022-10-23T09:35:05.489Z,13.34
2022-10-23T09:37:35.762Z,12.60
2022-10-23T09:40:16.631Z,12.84
2022-10-23T09:42:55.992Z,12.87
2022-10-23T09:45:25.192Z,13.38
2022-10-23T09:47:51.503Z,13.91
2022-10-23T09:50:21.312Z,13.95
2022-10-23T09:52:51.341Z,14.62
2022-10-23T09:55:24.866Z,14.65
2022-10-23T09:57:53.766Z,14.60
2022-10-23T10:00:25.918Z,14.78
2022-10-23T10:03:02.757Z,14.83
2022-10-23T10:05:33.089Z,14.16
2022-10-23T10:08:24.223Z,14.71
2022-10-23T10:10:55.731Z,14.93
2022-10-23T10:13:34.927Z,14.72
2022-10-23T10:16:16.662Z,14.52
2022-10-23T10:19:07.176Z,14.65
2022-10-23T10:21:33.577Z,14.49
2022-10-23T10:24:11.852Z,14.19
2022-10-23T10:26:51.587Z,13.67
2022-10-23T10:29:39.730Z,14.49
2022-10-23T10:32:11.967Z,14.28
2022-10-23T10:34:49.695Z,14.56
2022-10-23T10:37:44.926Z,14.67
2022-10-23T10:40:19.836Z,14.66
2022-10-23T10:43:06.219Z,15.06
2022-10-23T10:45:49.055Z,15.14
2022-10-23T10:48:41.239Z,15.64
2022-10-23T10:51:16.928Z,14.66
2022-10-23T10:53:48.840Z,14.53
2022-10-23T10:56:18.810Z,14.44
2022-10-23T10:58:57.586Z,14.45
2022-10-23T11:01:37.918Z,14.76
2022-10-23T11:04:13.586Z,14.84
2022-10-23T11:06:44.923Z,15.02
2022-10-23T11:09:24.228Z,15.11
2022-10-23T11:11:51.080Z,15.83
2022-10-23T11:14:29.159Z,15.91
2022-10-23T11:17:07.774Z,15.26
2022-10-23T11:19:57.619Z,15.49
2022-10-23T11:22:50.374Z,15.37
2022-10-23T11:25:47.028Z,15.78
2022-10-23T11:28:19.743Z,15.07
2022-10-23T11:31:12.289Z,15.62
2022-10-23T11:34:07.187Z,16.06
2022-10-23T11:36:45.748Z,15.60
2022-10-23T11:39:30.407Z,16.08
2022-10-23T11:41:59.821Z,16.05
2022-10-23T11:44:35.101Z,16.11
2022-10-23T11:47:24.786Z,16.12
2022-10-23T11:49:51.808Z,16.08
2022-10-23T11:52:23.938Z,16.17
2022-10-23T11:55:02.495Z,16.34
2022-10-23T11:59:57.786Z,16.89
2022-10-23T12:02:32.315Z,16.71
2022-10-23T12:05:04.522Z,16.55
2022-10-23T12:07:35.797Z,15.80
2022-10-23T12:10:06.479Z,16.23
2022-10-23T12:12:40.680Z,16.26
2022-10-23T12:15:17.073Z,16.11
2022-10-23T12:17:44.240Z,16.12
2022-10-23T12:20:22.899Z,16.66
2022-10-23T12:23:17.179Z,16.68
2022-10-23T12:25:56.870Z,16.64
2022-10-23T12:28:38.040Z,16.72
2022-10-23T12:31:24.230Z,16.39
2022-10-23T12:33:53.371Z,16.31
2022-10-23T12:36:35.465Z,17.01
2022-10-23T12:39:02.099Z,17.61
2022-10-23T12:41:30.557Z,16.90
2022-10-23T12:43:57.319Z,16.90
2022-10-23T12:46:40.347Z,17.44
2022-10-23T12:49:19.520Z,18.30
2022-10-23T12:51:46.363Z,18.57
2022-10-23T12:54:16.251Z,17.31
2022-10-23T12:56:44.182Z,16.89
2022-10-23T12:59:16.133Z,16.55
2022-10-23T13:01:43.474Z,16.29
2022-10-23T13:04:10.215Z,16.28
2022-10-23T13:06:38.800Z,16.33
2022-10-23T13:09:07.403Z,16.24
2022-10-23T13:11:34.068Z,16.68
2022-10-23T13:14:00.492Z,17.23
2022-10-23T13:16:27.073Z,17.46
2022-10-23T13:18:56.315Z,16.71
2022-10-23T13:21:26.799Z,16.48
2022-10-23T13:23:54.468Z,16.35
2022-10-23T13:26:45.477Z,17.04
2022-10-23T13:29:33.911Z,17.54
2022-10-23T13:32:24.386Z,17.60
2022-10-23T13:35:03.645Z,17.46
2022-10-23T13:37:37.224Z,17.45
2022-10-23T13:40:07.523Z,17.45
2022-10-23T13:42:33.886Z,17.34
2022-10-23T13:45:00.981Z,17.38
2022-10-23T13:47:27.969Z,16.95
2022-10-23T13:49:54.375Z,17.14
2022-10-23T13:52:23.634Z,17.11
2022-10-23T13:54:51.076Z,16.96
2022-10-23T13:57:17.407Z,16.97
2022-10-23T13:59:43.948Z,16.73
2022-10-23T14:02:20.820Z,16.48
2022-10-23T14:04:48.680Z,16.40
2022-10-23T14:07:15.344Z,16.60
2022-10-23T14:09:42.980Z,16.59
2022-10-23T14:12:09.444Z,16.74
2022-10-23T14:14:35.789Z,16.75
2022-10-23T14:17:02.682Z,16.90
2022-10-23T14:19:29.167Z,16.90
2022-10-23T14:21:55.523Z,16.93
2022-10-23T14:24:22.368Z,17.00
2022-10-23T14:26:48.770Z,17.13
2022-10-23T14:29:21.405Z,16.98
2022-10-23T14:31:50.883Z,17.05
2022-10-23T14:34:17.585Z,17.02
2022-10-23T14:36:50.892Z,17.13
2022-10-23T14:39:23.707Z,16.92
2022-10-23T14:41:50.032Z,16.83
2022-10-23T14:44:16.336Z,16.72
2022-10-23T14:46:43.124Z,16.65
2022-10-23T14:49:09.462Z,16.57
2022-10-23T14:51:36.294Z,16.51
2022-10-23T14:54:05.726Z,16.18
2022-10-23T14:56:34.317Z,16.27
2022-10-23T14:59:04.033Z,16.29
2022-10-23T15:01:32.640Z,16.22
2022-10-23T15:03:59.116Z,16.17
2022-10-23T15:06:26.165Z,16.11
2022-10-23T15:08:55.299Z,16.17
2022-10-23T15:11:22.526Z,16.09
2022-10-23T15:13:49.262Z,16.12
2022-10-23T15:16:15.980Z,16.02
2022-10-23T15:18:42.301Z,15.90
2022-10-23T15:21:09.872Z,15.93
2022-10-23T15:23:41.771Z,15.82
2022-10-23T15:26:12.752Z,15.75
2022-10-23T15:28:39.140Z,15.80
2022-10-23T15:31:05.968Z,15.88
2022-10-23T15:33:32.717Z,15.65
2022-10-23T15:35:59.049Z,15.52
2022-10-23T15:38:26.507Z,15.56
2022-10-23T15:41:00.580Z,15.45
2022-10-23T15:43:27.329Z,15.46
2022-10-23T15:45:53.681Z,15.40
2022-10-23T15:48:20.107Z,15.23
2022-10-23T15:50:46.887Z,15.22
2022-10-23T15:53:13.200Z,15.03
2022-10-23T15:55:39.528Z,14.86
2022-10-23T15:58:06.254Z,14.93
2022-10-23T16:00:35.859Z,14.94
2022-10-23T16:03:02.591Z,14.84
2022-10-23T16:05:28.912Z,14.72
2022-10-23T16:07:55.236Z,14.66
2022-10-23T16:10:23.147Z,14.65
2022-10-23T16:12:49.973Z,14.62
2022-10-23T16:15:16.362Z,14.47
2022-10-23T16:17:42.985Z,14.41
2022-10-23T16:20:10.610Z,14.34
2022-10-23T16:22:40.145Z,14.44
2022-10-23T16:25:09.487Z,14.42
2022-10-23T16:27:36.205Z,14.36
2022-10-23T16:30:02.618Z,14.20
2022-10-23T16:32:29.007Z,14.11
2022-10-23T16:34:55.900Z,14.07
2022-10-23T16:37:22.226Z,14.09
2022-10-23T16:39:48.557Z,14.14
2022-10-23T16:42:15.373Z,14.16
2022-10-23T16:44:41.735Z,13.84
2022-10-23T16:47:08.066Z,13.77
2022-10-23T16:49:34.695Z,13.71
2022-10-23T16:52:01.012Z,13.57
2022-10-23T16:54:27.360Z,13.72
2022-10-23T16:56:54.183Z,13.83
2022-10-23T16:59:20.559Z,13.73
2022-10-23T17:01:47.035Z,13.86
2022-10-23T17:04:14.078Z,13.97
2022-10-23T17:06:41.063Z,13.72
2022-10-23T17:09:07.436Z,13.65
2022-10-23T17:11:37.435Z,13.54
2022-10-23T17:14:17.525Z,13.70
2022-10-23T17:16:48.366Z,13.81
2022-10-23T17:19:33.101Z,13.59
2022-10-23T17:22:03.001Z,13.62
2022-10-23T17:24:29.411Z,13.65
2022-10-23T17:26:56.093Z,13.67
2022-10-23T17:29:22.939Z,13.55
2022-10-23T17:31:51.422Z,13.36
2022-10-23T17:34:20.840Z,13.42
2022-10-23T17:36:50.156Z,13.41
2022-10-23T17:39:23.294Z,13.53
2022-10-23T17:41:50.027Z,13.73
2022-10-23T17:44:16.562Z,13.62
2022-10-23T17:46:43.731Z,13.49
2022-10-23T17:49:11.470Z,13.41
2022-10-23T17:51:37.888Z,13.35
2022-10-23T17:54:07.970Z,13.33
2022-10-23T17:56:37.467Z,13.26
2022-10-23T17:59:13.933Z,13.24
2022-10-23T18:01:42.930Z,13.19
2022-10-23T18:04:09.723Z,13.16
2022-10-23T18:06:41.941Z,13.13
2022-10-23T18:09:08.662Z,13.07
2022-10-23T18:11:37.953Z,13.12
2022-10-23T18:14:06.329Z,13.14
2022-10-23T18:16:34.556Z,12.86
2022-10-23T18:19:01.798Z,12.78
2022-10-23T18:21:28.806Z,12.72
2022-10-23T18:23:56.126Z,12.83
2022-10-23T18:26:26.511Z,12.99
2022-10-23T18:28:57.271Z,13.01
2022-10-23T18:31:25.445Z,13.12
2022-10-23T18:34:02.042Z,13.14
2022-10-23T18:36:33.439Z,13.12
2022-10-23T18:39:00.004Z,13.20
2022-10-23T18:41:27.463Z,13.21
2022-10-23T18:43:54.516Z,13.18
2022-10-23T18:46:21.805Z,13.19
2022-10-23T18:48:51.148Z,13.20
2022-10-23T18:51:23.902Z,13.11
2022-10-23T18:53:51.790Z,13.07
2022-10-23T18:56:24.147Z,13.08
2022-10-23T18:58:52.911Z,13.12
2022-10-23T19:01:20.298Z,13.18
2022-10-23T19:03:46.975Z,13.16
2022-10-23T19:06:14.331Z,13.14
2022-10-23T19:08:43.390Z,13.10
2022-10-23T19:11:10.755Z,13.27
2022-10-23T19:13:39.651Z,13.19
2022-10-23T19:16:27.547Z,12.94
2022-10-23T19:19:04.721Z,13.07
2022-10-23T19:21:34.995Z,13.20
2022-10-23T19:24:06.392Z,13.30
2022-10-23T19:26:35.675Z,13.29
2022-10-23T19:29:03.013Z,13.35
2022-10-23T19:31:29.378Z,13.31
2022-10-23T19:33:55.746Z,13.30
2022-10-23T19:36:23.681Z,13.36
2022-10-23T19:38:50.316Z,13.37
2022-10-23T19:41:18.024Z,13.41
2022-10-23T19:43:44.784Z,13.33
2022-10-23T19:46:12.327Z,13.43
2022-10-23T19:48:42.335Z,13.43
2022-10-23T19:51:09.789Z,13.40
2022-10-23T19:53:36.266Z,13.41
2022-10-23T19:56:08.079Z,13.42
2022-10-23T19:58:34.809Z,13.43
2022-10-23T20:01:09.525Z,13.45
2022-10-23T20:03:36.579Z,13.51
2022-10-23T20:06:03.176Z,13.66
2022-10-23T20:08:32.693Z,14.07
2022-10-23T20:11:01.964Z,14.39
2022-10-23T20:13:28.356Z,14.48
2022-10-23T20:15:55.603Z,14.70
2022-10-23T20:18:22.630Z,14.75
2022-10-23T20:20:49.762Z,14.97
2022-10-23T20:23:16.086Z,14.87
2022-10-23T20:25:42.460Z,14.98
2022-10-23T20:28:11.569Z,15.08
2022-10-23T20:30:42.428Z,15.25
2022-10-23T20:33:08.820Z,15.63
2022-10-23T20:35:42.463Z,15.72
2022-10-23T20:38:09.780Z,16.08
2022-10-23T20:40:36.644Z,16.04
2022-10-23T20:43:03.899Z,16.69
2022-10-23T20:45:30.271Z,16.73
2022-10-23T20:47:57.334Z,16.59
2022-10-23T20:50:23.855Z,16.92
2022-10-23T20:52:50.723Z,17.10
2022-10-23T20:55:18.335Z,17.73
2022-10-23T20:57:44.941Z,17.20
2022-10-23T21:00:11.901Z,17.13
2022-10-23T21:02:38.638Z,17.50
2022-10-23T21:05:05.435Z,17.47
2022-10-23T21:07:31.770Z,17.54
2022-10-23T21:09:58.220Z,17.73
2022-10-23T21:12:25.150Z,17.75
2022-10-23T21:14:53.636Z,17.56
2022-10-23T21:17:20.148Z,17.76
2022-10-23T21:19:46.723Z,17.54
2022-10-23T21:22:13.723Z,17.48
2022-10-23T21:24:40.047Z,17.29
2022-10-23T21:27:06.387Z,17.19
2022-10-23T21:29:33.495Z,16.90
2022-10-23T21:32:03.376Z,16.81
2022-10-23T21:34:30.288Z,16.64
2022-10-23T21:37:14.144Z,16.64
2022-10-23T21:39:43.514Z,16.48
2022-10-23T21:42:11.815Z,16.50
2022-10-23T21:44:38.161Z,16.41
2022-10-23T21:47:04.634Z,16.25
2022-10-23T21:49:31.773Z,16.07
2022-10-23T21:51:58.139Z,16.02
2022-10-23T21:54:25.076Z,15.65
2022-10-23T21:56:53.624Z,15.53
2022-10-23T21:59:27.894Z,15.37
2022-10-23T22:01:56.745Z,15.42
2022-10-23T22:04:23.162Z,15.45
2022-10-23T22:06:50.319Z,15.42
2022-10-23T22:09:19.244Z,15.29
2022-10-23T22:11:46.447Z,14.96
2022-10-23T22:14:12.788Z,14.86
2022-10-23T22:16:39.117Z,14.63
2022-10-23T22:19:06.083Z,14.55
2022-10-23T22:21:32.444Z,14.40
2022-10-23T22:24:00.457Z,14.34
2022-10-23T22:26:33.131Z,14.30
2022-10-23T22:29:07.363Z,14.15
2022-10-23T22:31:35.780Z,14.06
2022-10-23T22:34:13.270Z,13.92
2022-10-23T22:36:50.998Z,13.90
2022-10-23T22:39:17.514Z,13.86
2022-10-23T22:41:43.877Z,13.74
2022-10-23T22:44:12.472Z,13.70
2022-10-23T22:46:38.869Z,13.63
2022-10-23T22:51:37.671Z,13.48
2022-10-23T22:54:04.118Z,13.48
2022-10-23T22:56:30.702Z,13.42
2022-10-23T22:58:58.232Z,13.39
2022-10-23T23:01:24.531Z,13.33
2022-10-23T23:03:51.858Z,13.33
2022-10-23T23:06:19.928Z,13.30
2022-10-23T23:08:46.680Z,13.26
2022-10-23T23:11:15.594Z,13.23
2022-10-23T23:13:43.240Z,13.21
2022-10-23T23:16:21.043Z,13.17
2022-10-23T23:18:48.950Z,13.12
2022-10-23T23:21:16.107Z,13.07
2022-10-23T23:23:42.445Z,13.02
2022-10-23T23:26:09.322Z,13.00
2022-10-23T23:28:36.074Z,12.94
2022-10-23T23:31:07.544Z,12.89
2022-10-23T23:33:35.506Z,12.90
2022-10-23T23:36:07.160Z,12.95
2022-10-23T23:38:34.114Z,12.99
2022-10-23T23:41:00.961Z,13.07
2022-10-23T23:43:27.479Z,13.01
2022-10-23T23:45:53.815Z,12.94
2022-10-23T23:48:20.554Z,12.94
2022-10-23T23:50:46.892Z,12.95
2022-10-23T23:53:13.235Z,13.00
2022-10-23T23:55:39.983Z,12.98
2022-10-23T23:58:06.546Z,12.94
